createdAt,value
2017-10-19T00:00:02.536Z,0
2017-10-19T00:05:03.336Z,0
2017-10-19T00:10:02.957Z,0
2017-10-19T00:15:03.428Z,0
2017-10-19T00:20:02.852Z,0
2017-10-19T00:25:03.317Z,0
2017-10-19T00:30:02.759Z,0
2017-10-19T00:35:03.375Z,0
2017-10-19T00:40:02.849Z,0
2017-10-19T00:45:03.281Z,0
2017-10-19T00:50:02.739Z,0
2017-10-19T00:55:03.355Z,0
2017-10-19T01:00:02.783Z,0
2017-10-19T01:05:03.358Z,0
2017-10-19T01:10:02.859Z,0
2017-10-19T01:15:03.406Z,0
2017-10-19T01:20:03.062Z,0
2017-10-19T01:25:02.547Z,0
2017-10-19T01:30:03.019Z,0
2017-10-19T01:35:02.586Z,0
2017-10-19T01:40:03.197Z,0
2017-10-19T01:45:02.653Z,0
2017-10-19T01:50:03.264Z,0
2017-10-19T01:55:02.716Z,0
2017-10-19T02:00:03.195Z,0
2017-10-19T02:05:02.589Z,0
2017-10-19T02:10:03.075Z,0
2017-10-19T02:15:02.652Z,0
2017-10-19T02:20:03.286Z,0
2017-10-19T02:25:02.676Z,0
2017-10-19T02:30:03.118Z,0
2017-10-19T02:35:02.550Z,0
2017-10-19T02:40:03.092Z,0
2017-10-19T02:45:02.679Z,0
2017-10-19T02:50:03.199Z,0
2017-10-19T02:55:02.744Z,0
2017-10-19T03:00:03.171Z,0
2017-10-19T03:05:02.712Z,0
2017-10-19T03:10:03.429Z,0
2017-10-19T03:15:03.003Z,0
2017-10-19T03:20:02.541Z,0
2017-10-19T03:25:02.964Z,0
2017-10-19T03:30:02.446Z,0
2017-10-19T03:35:03.104Z,0
2017-10-19T03:40:02.792Z,0
2017-10-19T03:45:03.383Z,0
2017-10-19T03:50:02.893Z,0
2017-10-19T03:55:02.494Z,0
2017-10-19T04:00:03.024Z,0
2017-10-19T04:05:02.649Z,0
2017-10-19T04:10:03.176Z,0
2017-10-19T04:15:02.611Z,0
2017-10-19T04:20:03.166Z,0
2017-10-19T04:25:02.765Z,0
2017-10-19T04:30:03.149Z,0
2017-10-19T04:35:02.602Z,0
2017-10-19T04:40:03.072Z,0
2017-10-19T04:45:02.598Z,0
2017-10-19T04:50:03.207Z,0
2017-10-19T04:55:02.720Z,0
2017-10-19T05:00:03.186Z,0
2017-10-19T05:05:02.695Z,0
2017-10-19T05:10:03.288Z,0
2017-10-19T05:15:02.873Z,0
2017-10-19T05:20:02.421Z,0
2017-10-19T05:25:02.876Z,0
2017-10-19T05:30:03.331Z,1
2017-10-19T05:35:02.864Z,2
2017-10-19T05:40:02.548Z,8
2017-10-19T05:45:03.205Z,18
2017-10-19T05:50:02.735Z,41
2017-10-19T05:55:03.382Z,57
2017-10-19T06:00:02.822Z,70
2017-10-19T06:05:03.238Z,103
2017-10-19T06:10:02.689Z,144
2017-10-19T06:15:03.160Z,266
2017-10-19T06:20:02.714Z,378
2017-10-19T06:25:03.249Z,635
2017-10-19T06:30:02.808Z,765
2017-10-19T06:35:03.271Z,901
2017-10-19T06:40:02.891Z,1000
2017-10-19T06:45:03.272Z,1000
2017-10-19T06:50:02.716Z,1000
2017-10-19T06:55:03.284Z,1000
2017-10-19T07:00:02.738Z,1000
2017-10-19T07:05:03.216Z,2000
2017-10-19T07:10:02.640Z,2000
2017-10-19T07:15:03.243Z,2000
2017-10-19T07:20:02.695Z,2000
2017-10-19T07:25:03.276Z,2000
2017-10-19T07:30:02.884Z,3000
2017-10-19T07:35:03.351Z,3000
2017-10-19T07:40:02.814Z,3000
2017-10-19T07:45:03.335Z,4000
2017-10-19T07:50:02.859Z,4000
2017-10-19T07:55:03.409Z,13000
2017-10-19T08:00:02.945Z,18000
2017-10-19T08:05:03.391Z,18000
2017-10-19T08:10:03.005Z,18000
2017-10-19T08:15:02.560Z,22000
2017-10-19T08:20:03.032Z,22000
2017-10-19T08:25:02.555Z,17000
2017-10-19T08:30:03.229Z,22000
2017-10-19T08:35:02.686Z,22000
2017-10-19T08:40:03.297Z,22000
2017-10-19T08:45:02.757Z,24000
2017-10-19T08:50:02.448Z,29000
2017-10-19T08:55:02.865Z,28000
2017-10-19T09:00:02.493Z,27000
2017-10-19T09:05:03.162Z,29000
2017-10-19T09:10:02.712Z,27000
2017-10-19T09:15:03.257Z,26000
2017-10-19T09:20:02.871Z,26000
2017-10-19T09:25:03.567Z,26000
2017-10-19T09:30:03.138Z,26000
2017-10-19T09:35:02.553Z,21000
2017-10-19T09:40:03.131Z,20000
2017-10-19T09:45:02.651Z,18000
2017-10-19T09:50:03.097Z,17000
2017-10-19T09:55:02.646Z,13000
2017-10-19T10:00:03.242Z,14000
2017-10-19T10:05:02.869Z,10000
2017-10-19T10:10:03.392Z,9000
2017-10-19T10:15:02.849Z,13000
2017-10-19T10:20:03.377Z,14000
2017-10-19T10:25:02.958Z,17000
2017-10-19T10:30:03.449Z,19000
2017-10-19T10:35:02.854Z,20000
2017-10-19T10:40:02.473Z,27000
2017-10-19T10:45:03.095Z,29000
2017-10-19T10:50:02.688Z,23000
2017-10-19T10:55:03.201Z,24000
2017-10-19T11:00:02.662Z,21000
2017-10-19T11:05:03.310Z,29000
2017-10-19T11:10:02.973Z,32000
2017-10-19T11:15:02.528Z,18000
2017-10-19T11:20:03.215Z,20000
2017-10-19T11:25:02.782Z,13000
2017-10-19T11:30:03.263Z,9000
2017-10-19T11:35:03.041Z,9000
2017-10-19T11:40:02.585Z,9000
2017-10-19T11:45:03.216Z,9000
2017-10-19T11:50:02.726Z,8000
2017-10-19T11:55:03.316Z,8000
2017-10-19T12:00:02.901Z,8000
2017-10-19T12:05:03.377Z,8000
2017-10-19T12:10:03.039Z,7000
2017-10-19T12:15:02.649Z,10000
2017-10-19T12:20:03.273Z,9000
2017-10-19T12:25:02.844Z,12000
2017-10-19T12:30:02.494Z,13000
2017-10-19T12:35:03.263Z,20000
2017-10-19T12:40:02.788Z,19000
2017-10-19T12:45:03.373Z,21000
2017-10-19T12:50:02.948Z,16000
2017-10-19T12:55:03.350Z,21000
2017-10-19T13:00:02.748Z,22000
2017-10-19T13:05:02.430Z,19000
2017-10-19T13:10:02.997Z,20000
2017-10-19T13:15:02.624Z,16000
2017-10-19T13:20:03.114Z,12000
2017-10-19T13:25:02.726Z,11000
2017-10-19T13:30:03.368Z,13000
2017-10-19T13:35:02.800Z,11000
2017-10-19T13:40:03.302Z,12000
2017-10-19T13:45:02.731Z,10000
2017-10-19T13:50:03.347Z,14000
2017-10-19T13:55:02.868Z,17000
2017-10-19T14:00:03.266Z,17000
2017-10-19T14:05:02.882Z,15000
2017-10-19T14:10:02.533Z,15000
2017-10-19T14:15:03.127Z,10000
2017-10-19T14:20:02.783Z,11000
2017-10-19T14:25:03.400Z,8000
2017-10-19T14:30:02.824Z,10000
2017-10-19T14:35:03.412Z,9000
2017-10-19T14:40:02.906Z,9000
2017-10-19T14:45:02.602Z,8000
2017-10-19T14:50:03.111Z,3000
2017-10-19T14:55:02.640Z,4000
2017-10-19T15:00:03.133Z,5000
2017-10-19T15:05:02.678Z,4000
2017-10-19T15:10:03.222Z,4000
2017-10-19T15:15:02.797Z,3000
2017-10-19T15:20:03.427Z,3000
2017-10-19T15:25:03.004Z,3000
2017-10-19T15:30:02.666Z,2000
2017-10-19T15:35:03.095Z,2000
2017-10-19T15:40:02.608Z,3000
2017-10-19T15:45:03.224Z,3000
2017-10-19T15:50:02.716Z,2000
2017-10-19T15:55:03.198Z,2000
2017-10-19T16:00:02.684Z,1000
2017-10-19T16:05:03.307Z,1000
2017-10-19T16:10:02.869Z,1000
2017-10-19T16:15:03.431Z,864
2017-10-19T16:20:02.876Z,727
2017-10-19T16:25:03.275Z,465
2017-10-19T16:30:02.888Z,334
2017-10-19T16:35:03.451Z,149
2017-10-19T16:40:02.979Z,58
2017-10-19T16:45:02.615Z,37
2017-10-19T16:50:03.133Z,18
2017-10-19T16:55:02.519Z,13
2017-10-19T17:00:03.164Z,5
2017-10-19T17:05:02.716Z,2
2017-10-19T17:10:03.387Z,1
2017-10-19T17:15:02.852Z,0
2017-10-19T17:20:03.426Z,0
2017-10-19T17:25:02.822Z,0
2017-10-19T17:30:03.294Z,0
2017-10-19T17:35:02.831Z,0
2017-10-19T17:40:02.548Z,0
2017-10-19T17:45:03.030Z,0
2017-10-19T17:50:02.542Z,0
2017-10-19T17:55:03.031Z,0
2017-10-19T18:00:02.649Z,0
2017-10-19T18:05:03.148Z,0
2017-10-19T18:10:02.684Z,0
2017-10-19T18:15:03.165Z,0
2017-10-19T18:20:02.758Z,0
2017-10-19T18:25:03.191Z,0
2017-10-19T18:30:02.644Z,0
2017-10-19T18:35:03.116Z,0
2017-10-19T18:40:02.620Z,0
2017-10-19T18:50:02.709Z,0
2017-10-19T18:55:03.279Z,0
2017-10-19T19:00:02.860Z,0
2017-10-19T19:05:03.330Z,0
2017-10-19T19:10:02.903Z,0
2017-10-19T19:15:02.422Z,0
2017-10-19T19:20:03.171Z,0
2017-10-19T19:25:02.633Z,0
2017-10-19T19:30:03.200Z,0
2017-10-19T19:35:02.588Z,0
2017-10-19T19:40:03.180Z,0
2017-10-19T19:45:02.688Z,0
2017-10-19T19:50:03.158Z,0
2017-10-19T19:55:02.579Z,0
2017-10-19T20:00:03.043Z,0
2017-10-19T20:05:02.614Z,0
2017-10-19T20:10:03.073Z,0
2017-10-19T20:15:02.633Z,0
2017-10-19T20:20:03.222Z,0
2017-10-19T20:25:02.686Z,0
2017-10-19T20:30:03.477Z,0
2017-10-19T20:35:03.101Z,0
2017-10-19T20:40:02.593Z,0
2017-10-19T20:45:03.074Z,0
2017-10-19T20:50:02.488Z,0
2017-10-19T20:55:02.998Z,0
2017-10-19T21:00:02.441Z,0
2017-10-19T21:05:02.874Z,0
2017-10-19T21:10:03.318Z,0
2017-10-19T21:15:02.867Z,0
2017-10-19T21:20:03.308Z,0
2017-10-19T21:25:02.822Z,0
2017-10-19T21:30:03.547Z,0
2017-10-19T21:35:02.951Z,0
2017-10-19T21:40:02.624Z,0
2017-10-19T21:45:03.094Z,0
2017-10-19T21:50:02.638Z,0
2017-10-19T21:55:03.132Z,0
2017-10-19T22:00:02.752Z,0
2017-10-19T22:05:03.253Z,0
2017-10-19T22:10:02.858Z,0
2017-10-19T22:15:03.409Z,0
2017-10-19T22:20:02.824Z,0
2017-10-19T22:25:03.378Z,0
2017-10-19T22:30:02.797Z,0
2017-10-19T22:35:03.386Z,0
2017-10-19T22:40:03.104Z,0
2017-10-19T22:45:02.585Z,0
2017-10-19T22:50:03.241Z,0
2017-10-19T22:55:02.642Z,0
2017-10-19T23:00:03.911Z,0
2017-10-19T23:05:03.312Z,0
2017-10-19T23:10:02.916Z,0
2017-10-19T23:15:03.406Z,0
2017-10-19T23:20:02.964Z,0
2017-10-19T23:25:02.582Z,0
2017-10-19T23:30:03.153Z,0
2017-10-19T23:35:02.844Z,0
2017-10-19T23:40:03.448Z,0
2017-10-19T23:45:02.891Z,0
2017-10-19T23:50:02.520Z,0
2017-10-19T23:55:03.150Z,0
